Sinop, Brazil
Current Conditions -  °F | °C
As of 6:00 PM on Tuesday 21 Oct 2014 (Local Time) from SBAT Reporting Station
Scattered Clouds Scattered Clouds  
Wind Chill: 86°   Ceiling: Unl
Heat Index: 92°   Visibility: 6mi
Dew Point: 72°   Wind: 2mph
Humidity: 62%   Direction: 270°W
Pressure: 29.77"   Gusts: NA
Location:  11.85°S, 55.46°W
Report Text: SBAT 212100Z 27002KT 9999 FEW030TCU SCT100 30/22 Q1008
Loading
Personal Weather Stations






























Interactive Weather Map
Tropical Storm Tracking
New forecast layout! Learn more

10-Day Weather Forecast

Advertisements
Track Severe Weather on mobile